New Orleans, LA (70123)

12:32 PM CDT on July 01, 2015 (GMT -0500)
Hickory Ridge Estates | | Change Station
CLOSE
Current Station
Personal Weather Station
Location: Harahan, LA
Elevation: 11 ft
Nearby Weather Stations

Elev 11 ft 29.95 °N, 90.20 °W | Updated 24 seconds ago

Mostly Cloudy
Mostly Cloudy
88.1 °F
Feels Like 102 °F
N
3.0
Wind Variable Wind from SW
Gusts 6.0 mph

Today
High -- | Low -- °F
--% Chance of Precip.
Yesterday
High -- | Low -- °F
Precip. -- in
6:03 AM 8:05 PM
Full, 100% visible
Pressure 30.13 in
Visibility 10.0 miles
Clouds Few 3000 ft
Mostly Cloudy 15000 ft
Mostly Cloudy 25000 ft
Heat Index 102 °F
Dew Point 78 °F
Humidity 73%
Rainfall 0.00 in
Snow Depth Not available.
UV 7 out of 12
Pollen 3.10 out of 12
Air Quality Not available.
Flu Activity Not available.
METAR KMSY 011653Z 19010KT 10SM FEW030 BKN150 BKN250 31/23 A3012 RMK AO2 SLP202 CB DSNT S T03110233

More Conditions Fewer Conditions

Pressure 30.13 in
Visibility 10.0 miles
Clouds Few 3000 ft
Mostly Cloudy 15000 ft
Mostly Cloudy 25000 ft
Heat Index 102 °F
Dew Point 78 °F
Humidity 73%
Rainfall 0.00 in
Snow Depth Not available.
UV 7 out of 12
Pollen 3.10 out of 12
Air Quality Not available.
Flu Activity Not available.
METAR KMSY 011653Z 19010KT 10SM FEW030 BKN150 BKN250 31/23 A3012 RMK AO2 SLP202 CB DSNT S T03110233

More Conditions Fewer Conditions

10-Day Weather Forecast

×

Almanac

Astronomy

Jul. 01, 2015 Rise Set
Actual Time
Civil Twilight
Nautical Twilight
Astronomical Twilight
Moon
Length of Visible Light
Length of Day
Tomorrow will be .
, % of the Moon is Illuminated

Today's Extremes

State Highs State Lows

Community

WunderPhotos

Upload Photos

1,834,216 photos uploaded!

WunderBlogs® & News

Nearby

Air Quality

  Air Quality AQ Index Pollutant
Not available.

Snow Depth

Station Depth Elevation

Earthquake Activity

City Distance Mag. Time & Date
Minimum magnitude displayed is 2.5.

Coastal Water Temperatures

Place Temperature

Stations

Nearby Weather Stations

Station Location Temp. Windchill Dew Point Humidity Wind Precip. Elev Updated Type